Time;durP1;ratioP1;P1;durP2;ratioP2;P2;SDS_P1;SDS_P2;PMS_P1;PMS_P2;Temp;Humidity;BMP_temperature;BMP_pressure;BME280_temperature;BME280_humidity;BME280_pressure;Samples;Min_cycle;Max_cycle;Signal;HPM_P1;HPM_P2
2023/09/29 00:00:16;;;;;;;2.55;0.70;;;16.90;92.90;;;;;;4965032;28;20057;-83
2023/09/29 00:02:45;;;;;;;2.03;0.70;;;16.90;92.90;;;;;;4962350;28;20414;-83
2023/09/29 00:05:17;;;;;;;1.83;0.70;;;16.90;92.90;;;;;;4946284;28;20047;-82
2023/09/29 00:07:45;;;;;;;3.88;1.10;;;16.90;93.00;;;;;;4961697;28;20508;-83
2023/09/29 00:10:16;;;;;;;3.63;0.70;;;16.90;93.00;;;;;;4960485;28;20046;-83
2023/09/29 00:12:44;;;;;;;4.40;0.70;;;16.90;93.00;;;;;;4960721;28;20560;-83
2023/09/29 00:15:12;;;;;;;3.60;0.80;;;16.90;93.10;;;;;;4944273;28;20055;-83
2023/09/29 00:17:39;;;;;;;1.90;0.57;;;16.90;93.10;;;;;;4960140;28;20047;-83
2023/09/29 00:20:23;;;;;;;4.32;0.70;;;16.90;93.10;;;;;;4928881;28;20043;-83
2023/09/29 00:22:58;;;;;;;4.05;0.70;;;16.90;93.10;;;;;;4945108;29;20070;-83
2023/09/29 00:25:26;;;;;;;3.53;1.02;;;16.90;93.10;;;;;;4967048;28;20401;-83
2023/09/29 00:27:57;;;;;;;3.40;0.95;;;16.90;93.10;;;;;;4946574;28;20511;-83
2023/09/29 00:30:24;;;;;;;1.67;0.52;;;16.90;93.10;;;;;;4927634;28;20408;-83
2023/09/29 00:32:53;;;;;;;2.90;1.02;;;16.90;93.10;;;;;;4962246;28;20051;-83
2023/09/29 00:35:27;;;;;;;1.80;0.60;;;16.90;93.10;;;;;;4959880;28;20070;-83
2023/09/29 00:37:58;;;;;;;2.30;0.60;;;16.90;93.10;;;;;;4959909;28;20098;-83
2023/09/29 00:40:26;;;;;;;2.28;0.88;;;17.00;93.10;;;;;;4953633;28;20487;-83
2023/09/29 00:42:54;;;;;;;3.58;0.68;;;16.90;93.10;;;;;;4978452;28;20625;-82
2023/09/29 00:45:24;;;;;;;1.40;0.60;;;17.00;93.10;;;;;;4953578;28;20051;-83
2023/09/29 00:47:56;;;;;;;4.63;0.95;;;17.00;93.10;;;;;;4959677;28;20046;-83
2023/09/29 00:50:26;;;;;;;2.42;0.52;;;17.00;93.10;;;;;;4959369;28;20050;-83
2023/09/29 00:52:58;;;;;;;1.70;0.68;;;17.00;93.10;;;;;;4944025;28;20054;-83
2023/09/29 00:55:27;;;;;;;;;;;17.00;93.10;;;;;;4959866;28;20073;-83
2023/09/29 00:57:58;;;;;;;3.15;0.75;;;16.90;93.10;;;;;;4959115;28;20324;-83
2023/09/29 01:03:05;;;;;;;3.17;0.77;;;16.90;93.10;;;;;;4975822;28;20646;-83
2023/09/29 01:05:38;;;;;;;4.85;1.00;;;17.00;93.20;;;;;;4938254;28;20373;-83
2023/09/29 01:08:09;;;;;;;1.25;0.55;;;16.90;93.40;;;;;;4947878;28;20046;-83
2023/09/29 01:10:36;;;;;;;3.00;0.60;;;16.90;93.40;;;;;;4985234;28;20100;-83
2023/09/29 01:13:05;;;;;;;2.17;1.05;;;16.90;93.20;;;;;;4949550;28;20042;-83
2023/09/29 01:15:34;;;;;;;3.28;0.77;;;16.90;93.20;;;;;;4942591;28;20109;-83
2023/09/29 01:18:02;;;;;;;3.67;0.90;;;16.90;93.20;;;;;;4958561;28;20056;-84
2023/09/29 01:20:30;;;;;;;2.38;0.65;;;17.00;93.20;;;;;;4962317;28;20042;-83
2023/09/29 01:23:00;;;;;;;3.53;0.93;;;17.00;93.20;;;;;;4951985;28;20053;-83
2023/09/29 01:25:28;;;;;;;3.28;1.00;;;17.00;93.20;;;;;;4958444;28;20125;-83
2023/09/29 01:27:56;;;;;;;3.63;1.10;;;17.00;93.10;;;;;;4958680;28;20051;-83
2023/09/29 01:30:33;;;;;;;3.33;0.93;;;17.10;93.10;;;;;;4974060;28;20069;-84
2023/09/29 01:33:09;;;;;;;2.30;0.73;;;17.10;93.10;;;;;;4968432;28;20073;-83
2023/09/29 01:35:36;;;;;;;4.22;1.13;;;17.10;93.10;;;;;;4958485;28;20515;-83
2023/09/29 01:38:04;;;;;;;5.93;1.10;;;17.10;93.10;;;;;;4958392;28;20054;-83
2023/09/29 01:40:31;;;;;;;3.70;1.00;;;17.10;93.10;;;;;;4945564;28;20047;-83
2023/09/29 01:42:58;;;;;;;3.80;1.15;;;17.20;93.10;;;;;;4926650;28;20417;-84
2023/09/29 01:45:26;;;;;;;3.35;1.08;;;17.20;93.10;;;;;;4958178;28;20046;-84
2023/09/29 01:47:55;;;;;;;2.97;1.33;;;17.20;93.10;;;;;;4955822;28;20420;-83
2023/09/29 01:50:24;;;;;;;2.28;0.80;;;17.20;93.10;;;;;;4928005;29;20109;-83
2023/09/29 01:52:52;;;;;;;5.22;1.30;;;17.20;93.10;;;;;;4923009;29;20564;-84
2023/09/29 01:55:22;;;;;;;3.85;1.40;;;17.20;93.10;;;;;;4954651;29;20047;-83
2023/09/29 01:57:57;;;;;;;3.58;1.20;;;17.20;93.10;;;;;;4942874;28;20049;-83
2023/09/29 02:00:25;;;;;;;3.90;1.70;;;17.20;93.10;;;;;;4942272;28;20176;-83
2023/09/29 02:02:54;;;;;;;4.43;1.08;;;17.30;93.10;;;;;;4957703;28;20564;-83
2023/09/29 02:05:22;;;;;;;2.65;1.42;;;17.30;93.10;;;;;;4941826;28;20042;-83
2023/09/29 02:07:50;;;;;;;2.08;1.00;;;17.30;93.10;;;;;;4957730;28;20046;-83
2023/09/29 02:10:19;;;;;;;5.22;1.23;;;17.30;93.00;;;;;;4961336;28;20496;-83
2023/09/29 02:12:57;;;;;;;3.17;1.35;;;17.40;93.00;;;;;;4976755;28;20104;-83
2023/09/29 02:15:26;;;;;;;3.70;1.30;;;17.40;93.00;;;;;;4960758;28;20407;-83
2023/09/29 02:17:53;;;;;;;5.15;1.50;;;17.40;93.10;;;;;;4957315;28;20051;-82
2023/09/29 02:20:25;;;;;;;2.65;1.27;;;17.40;93.00;;;;;;4956863;28;20135;-83
2023/09/29 02:22:54;;;;;;;4.00;1.40;;;17.40;93.10;;;;;;4942299;28;20054;-83
2023/09/29 02:25:25;;;;;;;3.63;1.20;;;17.40;93.10;;;;;;4957385;28;20047;-83
2023/09/29 02:27:55;;;;;;;4.60;1.20;;;17.40;93.00;;;;;;4957494;28;20051;-83
2023/09/29 02:30:24;;;;;;;3.30;1.15;;;17.40;93.10;;;;;;4957298;28;20051;-83
2023/09/29 02:32:52;;;;;;;3.63;1.27;;;17.40;93.10;;;;;;4957197;28;20101;-83
2023/09/29 02:35:20;;;;;;;3.72;1.40;;;17.40;93.10;;;;;;4957096;28;20408;-83
2023/09/29 02:37:48;;;;;;;3.47;1.00;;;17.40;93.10;;;;;;4957109;28;20042;-83
2023/09/29 02:40:15;;;;;;;4.95;1.08;;;17.40;93.10;;;;;;4957247;28;20047;-83
2023/09/29 02:42:46;;;;;;;6.00;1.20;;;17.40;93.10;;;;;;4957090;28;20097;-83
2023/09/29 02:45:15;;;;;;;1.95;0.80;;;17.40;93.20;;;;;;4957380;28;20122;-83
2023/09/29 02:47:43;;;;;;;4.57;1.05;;;17.30;93.20;;;;;;4925596;28;20042;-83
2023/09/29 02:50:11;;;;;;;2.70;1.20;;;17.30;93.20;;;;;;4941155;28;20058;-83
2023/09/29 02:52:40;;;;;;;4.57;1.30;;;17.30;93.20;;;;;;4940800;28;20137;-83
2023/09/29 02:55:12;;;;;;;3.92;1.30;;;17.30;93.30;;;;;;4959534;28;20485;-83
2023/09/29 02:57:44;;;;;;;4.03;1.60;;;17.20;93.30;;;;;;4941086;28;20074;-83
2023/09/29 03:00:18;;;;;;;3.50;1.42;;;17.20;93.40;;;;;;4940793;28;20043;-83
2023/09/29 03:02:45;;;;;;;3.03;1.20;;;17.20;93.40;;;;;;4940747;28;20054;-83
2023/09/29 03:05:16;;;;;;;3.75;1.23;;;17.10;93.50;;;;;;4956736;28;20564;-83
2023/09/29 03:07:44;;;;;;;3.17;0.90;;;17.10;93.50;;;;;;4957414;28;20047;-83
2023/09/29 03:10:20;;;;;;;3.10;1.48;;;17.00;93.60;;;;;;4959827;28;20501;-84
2023/09/29 03:12:48;;;;;;;2.78;1.10;;;17.00;93.60;;;;;;4959157;28;20043;-83
2023/09/29 03:15:16;;;;;;;3.00;0.98;;;16.90;93.70;;;;;;4956654;28;20053;-83
2023/09/29 03:17:45;;;;;;;3.33;1.30;;;16.90;93.70;;;;;;4957068;28;20047;-83
2023/09/29 03:20:14;;;;;;;3.03;1.27;;;16.90;93.80;;;;;;4940967;28;20051;-83
2023/09/29 03:22:44;;;;;;;6.63;1.40;;;16.90;93.80;;;;;;4956622;28;20085;-83
2023/09/29 03:25:19;;;;;;;2.67;1.58;;;16.90;93.80;;;;;;4925751;28;20057;-82
2023/09/29 03:27:50;;;;;;;3.42;1.00;;;16.90;93.70;;;;;;4941845;28;20094;-83
2023/09/29 03:30:17;;;;;;;2.95;1.20;;;16.90;93.70;;;;;;4941230;28;20086;-83
2023/09/29 03:32:45;;;;;;;1.80;1.02;;;17.00;93.70;;;;;;4931371;28;20560;-83
2023/09/29 03:35:13;;;;;;;2.13;1.05;;;17.00;93.70;;;;;;4958597;28;20061;-83
2023/09/29 03:37:43;;;;;;;4.38;1.17;;;17.00;93.70;;;;;;4956532;28;20057;-83
2023/09/29 03:40:13;;;;;;;2.95;1.17;;;17.00;93.70;;;;;;4956380;28;20047;-83
2023/09/29 03:42:44;;;;;;;2.95;1.50;;;17.00;93.70;;;;;;4941043;28;20046;-83
2023/09/29 03:45:12;;;;;;;3.15;1.13;;;17.00;93.70;;;;;;4925576;28;20047;-83
2023/09/29 03:47:41;;;;;;;3.65;1.10;;;17.00;93.80;;;;;;4955833;28;20113;-83
2023/09/29 03:50:11;;;;;;;2.72;1.20;;;17.00;93.80;;;;;;4938512;29;20417;-83
2023/09/29 03:52:40;;;;;;;3.05;1.02;;;17.00;93.80;;;;;;4950224;28;20453;-83
2023/09/29 03:55:09;;;;;;;3.45;1.15;;;17.00;93.80;;;;;;4925154;28;20432;-83
2023/09/29 03:57:38;;;;;;;3.70;1.10;;;17.00;93.90;;;;;;4947115;28;20047;-83
2023/09/29 04:00:12;;;;;;;2.65;0.85;;;17.00;93.90;;;;;;4963270;28;20046;-83
2023/09/29 04:02:40;;;;;;;2.40;0.90;;;17.00;93.90;;;;;;4959992;28;20493;-84
2023/09/29 04:05:09;;;;;;;2.92;1.17;;;16.90;93.90;;;;;;4974875;28;20046;-89
2023/09/29 04:07:40;;;;;;;1.60;0.80;;;16.90;93.90;;;;;;4965804;28;20047;-89
2023/09/29 04:10:09;;;;;;;2.00;0.93;;;16.90;93.90;;;;;;4972069;28;20043;-89
2023/09/29 04:12:44;;;;;;;2.80;0.90;;;16.90;93.90;;;;;;4982159;28;20042;-89
2023/09/29 04:15:12;;;;;;;3.65;1.00;;;17.00;93.90;;;;;;4965851;28;20038;-89
2023/09/29 04:17:40;;;;;;;3.42;1.23;;;17.00;93.90;;;;;;4933836;28;20543;-89
2023/09/29 04:20:08;;;;;;;4.00;1.33;;;17.00;93.90;;;;;;4963309;28;20070;-89
2023/09/29 04:22:36;;;;;;;2.30;0.95;;;17.00;93.90;;;;;;4934776;28;20046;-89
2023/09/29 04:25:07;;;;;;;2.10;1.00;;;17.00;93.90;;;;;;4963557;28;20050;-89
2023/09/29 04:27:35;;;;;;;3.17;1.00;;;17.00;93.90;;;;;;4969074;28;20066;-89
2023/09/29 04:30:03;;;;;;;2.25;1.05;;;17.00;93.90;;;;;;4967831;28;20090;-89
2023/09/29 04:32:34;;;;;;;2.75;1.05;;;17.00;94.00;;;;;;4961665;28;20051;-89
2023/09/29 04:35:03;;;;;;;2.75;1.05;;;17.00;94.00;;;;;;4954531;28;20051;-89
2023/09/29 04:37:30;;;;;;;1.92;0.80;;;17.00;94.00;;;;;;4962864;28;20212;-89
2023/09/29 04:39:58;;;;;;;4.13;1.00;;;17.00;94.00;;;;;;4971005;28;20097;-88
2023/09/29 04:42:25;;;;;;;2.53;0.82;;;17.00;94.10;;;;;;4951602;28;20548;-88
2023/09/29 04:44:52;;;;;;;2.40;1.10;;;16.90;94.00;;;;;;4973107;28;20043;-89
2023/09/29 04:47:20;;;;;;;3.15;1.10;;;17.00;94.00;;;;;;4949923;28;20050;-89
2023/09/29 04:49:49;;;;;;;3.15;1.48;;;17.00;94.00;;;;;;4964512;28;20149;-89
2023/09/29 04:52:16;;;;;;;2.30;1.00;;;17.00;94.00;;;;;;4953526;29;20055;-89
2023/09/29 04:54:44;;;;;;;1.60;1.00;;;16.90;94.00;;;;;;4965956;28;20054;-89
2023/09/29 04:57:11;;;;;;;2.60;0.90;;;17.00;94.10;;;;;;4948158;28;20445;-88
2023/09/29 04:59:38;;;;;;;5.57;0.57;;;17.00;94.10;;;;;;4945164;28;20074;-89
2023/09/29 05:02:05;;;;;;;3.63;1.00;;;16.90;94.10;;;;;;4959431;29;20114;-89
2023/09/29 05:04:33;;;;;;;1.98;0.70;;;16.90;94.10;;;;;;4959387;28;20042;-89
2023/09/29 05:07:00;;;;;;;2.05;0.80;;;17.00;94.10;;;;;;4948491;28;20106;-89
2023/09/29 05:09:27;;;;;;;2.45;1.02;;;17.00;94.10;;;;;;4956439;28;20078;-89
2023/09/29 05:11:54;;;;;;;1.80;0.80;;;16.90;94.10;;;;;;4962269;28;20141;-89
2023/09/29 05:14:22;;;;;;;3.45;0.77;;;17.00;94.10;;;;;;4930105;28;20157;-89
2023/09/29 05:16:50;;;;;;;2.72;0.90;;;17.00;94.20;;;;;;4961346;28;20069;-89
2023/09/29 05:19:19;;;;;;;2.42;0.88;;;17.00;94.10;;;;;;4961229;28;20105;-89
2023/09/29 05:21:46;;;;;;;2.88;1.00;;;17.00;94.10;;;;;;4960898;28;20047;-89
2023/09/29 05:24:14;;;;;;;2.40;0.95;;;17.10;94.10;;;;;;4960452;28;20493;-88
2023/09/29 05:26:42;;;;;;;2.58;1.00;;;17.10;94.10;;;;;;4944630;28;20049;-89
2023/09/29 05:29:09;;;;;;;1.77;0.68;;;17.10;94.10;;;;;;4960183;28;20413;-88
2023/09/29 05:31:36;;;;;;;2.55;0.90;;;17.20;94.10;;;;;;4944178;28;20065;-88
2023/09/29 05:34:03;;;;;;;2.17;0.73;;;17.20;94.00;;;;;;4928384;28;20043;-89
2023/09/29 05:36:32;;;;;;;1.20;0.55;;;17.20;94.00;;;;;;4960233;28;20059;-89
2023/09/29 05:38:59;;;;;;;1.73;0.60;;;17.20;94.00;;;;;;4959670;28;20417;-89
2023/09/29 05:41:27;;;;;;;1.10;0.50;;;17.30;94.00;;;;;;4965017;28;20051;-89
2023/09/29 05:43:55;;;;;;;1.85;0.60;;;17.30;94.00;;;;;;4944046;28;20453;-89
2023/09/29 05:46:22;;;;;;;1.38;0.60;;;17.30;94.00;;;;;;4953834;28;20047;-89
2023/09/29 05:48:49;;;;;;;1.45;0.63;;;17.30;94.00;;;;;;4944004;28;20070;-88
2023/09/29 05:51:19;;;;;;;1.85;0.70;;;17.40;94.00;;;;;;4943394;28;20055;-89
2023/09/29 05:53:46;;;;;;;1.85;0.70;;;17.40;94.00;;;;;;4943552;28;20054;-89
2023/09/29 05:56:14;;;;;;;1.60;0.65;;;17.50;94.00;;;;;;4959055;28;20394;-88
2023/09/29 05:58:41;;;;;;;2.83;0.68;;;17.50;94.00;;;;;;4942610;28;20046;-84
2023/09/29 06:01:10;;;;;;;1.90;0.73;;;17.60;94.00;;;;;;4954390;28;20039;-83
2023/09/29 06:03:38;;;;;;;1.83;0.70;;;17.60;93.90;;;;;;4963557;28;20038;-83
2023/09/29 06:06:06;;;;;;;2.38;0.60;;;17.60;93.90;;;;;;4966003;28;20481;-83
2023/09/29 06:08:34;;;;;;;1.65;0.70;;;17.70;93.90;;;;;;4941480;28;20050;-83
2023/09/29 06:11:21;;;;;;;1.95;0.75;;;17.70;93.90;;;;;;4960371;28;20074;-83
2023/09/29 06:13:48;;;;;;;1.83;0.70;;;17.70;93.90;;;;;;4942063;28;20408;-83
2023/09/29 06:16:16;;;;;;;2.85;0.60;;;17.70;93.90;;;;;;4941601;28;20055;-84
2023/09/29 06:18:46;;;;;;;1.50;0.57;;;17.80;93.90;;;;;;4938593;29;20098;-83
2023/09/29 06:21:19;;;;;;;1.17;0.50;;;17.80;93.80;;;;;;4938719;29;20542;-83
2023/09/29 06:23:47;;;;;;;1.83;0.60;;;17.90;93.80;;;;;;4941378;28;20548;-83
2023/09/29 06:26:14;;;;;;;1.38;0.60;;;17.90;93.80;;;;;;4941348;28;20051;-83
2023/09/29 06:28:41;;;;;;;1.30;0.60;;;18.00;93.80;;;;;;4941754;28;20073;-84
2023/09/29 06:31:09;;;;;;;2.15;0.70;;;18.10;93.80;;;;;;4957166;28;20042;-84
2023/09/29 06:33:36;;;;;;;1.80;0.60;;;18.10;93.70;;;;;;4928422;28;20050;-85
2023/09/29 06:36:03;;;;;;;2.65;0.70;;;18.20;93.70;;;;;;4937942;29;20195;-85
2023/09/29 06:38:33;;;;;;;1.27;0.50;;;18.30;93.60;;;;;;4954372;29;20401;-84
2023/09/29 06:41:03;;;;;;;1.20;0.60;;;18.30;93.60;;;;;;4942343;28;20047;-84
2023/09/29 06:43:30;;;;;;;1.75;0.75;;;18.30;93.60;;;;;;4957407;28;20517;-84
2023/09/29 06:45:58;;;;;;;1.27;0.50;;;18.30;93.60;;;;;;4957225;28;20109;-84
2023/09/29 06:48:28;;;;;;;1.83;0.50;;;18.30;93.60;;;;;;4957803;28;20042;-84
2023/09/29 06:50:59;;;;;;;2.83;0.82;;;18.30;93.70;;;;;;4941578;28;20047;-84
2023/09/29 06:53:28;;;;;;;1.38;0.47;;;18.30;93.70;;;;;;4957603;28;20142;-84
2023/09/29 06:55:57;;;;;;;0.93;0.40;;;18.30;93.70;;;;;;4957279;28;20070;-84
2023/09/29 06:58:25;;;;;;;1.25;0.40;;;18.40;93.80;;;;;;4941283;28;20168;-84
2023/09/29 07:00:53;;;;;;;1.08;0.40;;;18.40;93.70;;;;;;4957263;28;20051;-85
2023/09/29 07:03:21;;;;;;;0.90;0.50;;;18.40;93.70;;;;;;4957188;28;20122;-84
2023/09/29 07:05:52;;;;;;;1.50;0.65;;;18.40;93.70;;;;;;4941501;28;20110;-85
2023/09/29 07:08:23;;;;;;;1.02;0.50;;;18.50;93.70;;;;;;4957846;28;20057;-85
2023/09/29 07:10:59;;;;;;;2.92;0.70;;;18.50;93.70;;;;;;4957767;28;20045;-84
2023/09/29 07:13:29;;;;;;;1.35;0.40;;;18.60;93.70;;;;;;4973191;28;20074;-85
2023/09/29 07:15:57;;;;;;;1.45;0.50;;;18.60;93.70;;;;;;4925531;28;20101;-84
2023/09/29 07:18:28;;;;;;;2.08;0.63;;;18.60;93.70;;;;;;4941213;28;20053;-84
2023/09/29 07:20:58;;;;;;;0.93;0.40;;;18.70;93.70;;;;;;4956903;28;20047;-82
2023/09/29 07:23:25;;;;;;;1.30;0.60;;;18.70;93.60;;;;;;4940997;28;20043;-82
2023/09/29 07:25:54;;;;;;;0.90;0.40;;;18.80;93.60;;;;;;4941660;28;20117;-82
2023/09/29 07:28:23;;;;;;;1.50;0.50;;;18.90;93.50;;;;;;4956952;28;20039;-83
2023/09/29 07:30:51;;;;;;;1.80;0.52;;;19.00;93.50;;;;;;4941925;28;20462;-89
2023/09/29 07:33:21;;;;;;;2.25;0.40;;;19.10;93.40;;;;;;4959063;28;20105;-89
2023/09/29 07:35:49;;;;;;;1.83;0.68;;;19.20;93.30;;;;;;4950663;28;20067;-89
2023/09/29 07:38:19;;;;;;;2.97;0.60;;;19.30;93.20;;;;;;4962676;28;20074;-92
2023/09/29 07:40:50;;;;;;;1.45;0.60;;;19.30;93.20;;;;;;4933514;28;20055;-85
2023/09/29 07:43:18;;;;;;;1.95;0.40;;;19.40;93.20;;;;;;4955747;28;20407;-85
2023/09/29 07:45:45;;;;;;;4.15;0.50;;;19.50;93.10;;;;;;4955776;28;20067;-88
2023/09/29 07:48:16;;;;;;;1.08;0.50;;;19.50;93.10;;;;;;4979909;28;20038;-88
2023/09/29 07:50:45;;;;;;;1.65;0.43;;;19.60;93.10;;;;;;4949329;28;20055;-88
2023/09/29 07:53:13;;;;;;;1.80;0.55;;;19.60;93.10;;;;;;4962632;28;20046;-85
2023/09/29 07:55:43;;;;;;;0.68;0.43;;;19.60;93.10;;;;;;4939872;28;20047;-88
2023/09/29 07:58:12;;;;;;;0.80;0.47;;;19.60;93.10;;;;;;4946290;28;20046;-87
2023/09/29 08:00:42;;;;;;;2.15;0.77;;;19.60;93.10;;;;;;4961641;28;20047;-86
2023/09/29 08:03:10;;;;;;;2.33;0.82;;;19.70;93.10;;;;;;4926513;29;20512;-87
2023/09/29 08:05:37;;;;;;;3.13;1.33;;;19.80;93.00;;;;;;4942757;29;20047;-87
2023/09/29 08:08:07;;;;;;;2.33;0.70;;;19.80;93.00;;;;;;4927378;29;20078;-88
2023/09/29 08:10:35;;;;;;;1.80;0.70;;;20.00;92.90;;;;;;4912077;29;20047;-90
2023/09/29 08:13:03;;;;;;;2.97;0.60;;;20.00;92.80;;;;;;4955035;28;20082;-89
2023/09/29 08:15:30;;;;;;;1.08;0.50;;;20.10;92.80;;;;;;4961806;28;20051;-87
2023/09/29 08:18:19;;;;;;;3.78;0.90;;;20.10;92.80;;;;;;4946104;28;20070;-87
2023/09/29 08:20:53;;;;;;;1.30;0.50;;;20.20;92.70;;;;;;4962828;28;20079;-88
2023/09/29 08:23:31;;;;;;;2.58;0.68;;;20.20;92.70;;;;;;4946780;28;20078;-89
2023/09/29 08:26:08;;;;;;;1.83;0.73;;;20.30;92.70;;;;;;4962312;28;20137;-89
2023/09/29 08:28:43;;;;;;;2.13;0.70;;;20.30;92.70;;;;;;4960677;28;20516;-88
2023/09/29 08:31:21;;;;;;;2.17;0.68;;;20.30;92.60;;;;;;4945387;28;20043;-90
2023/09/29 08:33:59;;;;;;;1.48;0.60;;;20.40;92.60;;;;;;4956068;28;20134;-88
2023/09/29 08:36:30;;;;;;;1.30;0.60;;;20.50;92.60;;;;;;4948425;28;20046;-89
2023/09/29 08:39:38;;;;;;;1.75;0.47;;;20.60;92.50;;;;;;4963971;28;20051;-89
2023/09/29 08:42:45;;;;;;;1.40;0.55;;;20.70;92.40;;;;;;4962625;28;20050;-86
2023/09/29 08:45:44;;;;;;;2.33;0.50;;;20.80;92.20;;;;;;4928433;29;20047;-87
2023/09/29 08:49:03;;;;;;;2.72;0.60;;;20.90;92.20;;;;;;4975202;28;20054;-89
2023/09/29 08:51:45;;;;;;;1.15;0.60;;;21.00;92.00;;;;;;4933923;28;20046;-89
2023/09/29 08:58:32;;;;;;;2.20;0.90;;;21.30;91.80;;;;;;4941884;29;20102;-88
2023/09/29 09:01:10;;;;;;;;;;;;;;;;;;;;;
2023/09/29 09:04:18;;;;;;;2.03;0.90;;;21.40;91.70;;;;;;4943291;28;20063;-90
2023/09/29 09:06:56;;;;;;;3.13;0.93;;;21.50;91.50;;;;;;4947230;28;20050;-89
2023/09/29 09:09:32;;;;;;;2.80;0.90;;;21.60;91.30;;;;;;4945286;28;20039;-89
2023/09/29 09:12:08;;;;;;;3.38;0.90;;;21.70;91.30;;;;;;4960600;28;20050;-88
2023/09/29 09:15:05;;;;;;;2.25;0.77;;;21.80;91.20;;;;;;4960386;28;20050;-90
2023/09/29 09:17:36;;;;;;;1.67;0.75;;;21.90;91.10;;;;;;4968319;28;20480;-87
2023/09/29 09:20:07;;;;;;;2.97;0.90;;;21.90;91.20;;;;;;4948607;28;20078;-83
2023/09/29 09:22:38;;;;;;;3.42;1.10;;;21.80;91.20;;;;;;4951878;28;20142;-83
2023/09/29 09:25:15;;;;;;;2.40;1.10;;;21.90;91.10;;;;;;4943227;28;20040;-85
2023/09/29 09:28:16;;;;;;;2.25;0.85;;;22.00;91.00;;;;;;4945100;28;20042;-88
2023/09/29 09:31:04;;;;;;;3.08;1.00;;;22.00;91.00;;;;;;4962441;28;20065;-88
2023/09/29 09:33:31;;;;;;;2.10;0.80;;;22.20;90.80;;;;;;4959781;28;20413;-88
2023/09/29 09:36:20;;;;;;;2.08;0.80;;;22.20;90.70;;;;;;4960788;28;20093;-87
2023/09/29 09:38:53;;;;;;;3.63;1.20;;;22.20;90.60;;;;;;4940765;29;20098;-88
2023/09/29 09:41:26;;;;;;;2.85;1.10;;;22.10;90.60;;;;;;4959704;28;20563;-93
2023/09/29 09:44:42;;;;;;;3.10;0.75;;;22.00;90.70;;;;;;4944758;28;20055;-88
2023/09/29 09:47:37;;;;;;;3.95;1.02;;;22.10;90.60;;;;;;4965556;28;20138;-88
2023/09/29 09:54:10;;;;;;;6.07;2.03;;;22.40;89.40;;;;;;4929122;28;20039;-91
2023/09/29 09:57:03;;;;;;;;;;;;;;;;;;;;;
2023/09/29 10:00:00;;;;;;;3.75;1.40;;;22.40;89.30;;;;;;4957794;28;20075;-87
2023/09/29 10:02:38;;;;;;;4.53;1.52;;;22.30;89.70;;;;;;4961158;28;20049;-90
2023/09/29 10:05:23;;;;;;;3.78;1.20;;;22.40;89.70;;;;;;4929429;28;20150;-88
2023/09/29 10:08:12;;;;;;;5.28;1.25;;;22.40;89.60;;;;;;4935627;28;20047;-89
2023/09/29 10:10:41;;;;;;;3.47;1.58;;;22.50;89.20;;;;;;4946990;29;20039;-85
2023/09/29 10:13:11;;;;;;;2.97;1.23;;;22.60;89.20;;;;;;4971012;28;20066;-84
2023/09/29 10:15:39;;;;;;;4.05;1.10;;;22.70;89.50;;;;;;4984610;28;20123;-88
2023/09/29 10:18:21;;;;;;;4.60;1.83;;;22.90;88.60;;;;;;4965990;28;20066;-88
2023/09/29 10:21:00;;;;;;;2.65;1.20;;;22.90;88.40;;;;;;4934547;28;20046;-87
2023/09/29 10:23:28;;;;;;;3.28;1.30;;;22.80;88.40;;;;;;4942321;28;20067;-90
2023/09/29 10:26:03;;;;;;;4.10;1.33;;;22.80;88.40;;;;;;4945253;28;20074;-90
2023/09/29 10:28:36;;;;;;;1.95;1.00;;;22.70;88.10;;;;;;4960295;28;20097;-92
2023/09/29 10:31:13;;;;;;;2.88;1.25;;;22.60;88.50;;;;;;4944136;28;20513;-89
2023/09/29 10:33:52;;;;;;;;;;;22.60;88.80;;;;;;4945170;28;20054;-88
2023/09/29 10:36:25;;;;;;;2.63;0.90;;;22.40;89.00;;;;;;4959450;28;19973;-88
2023/09/29 10:38:59;;;;;;;2.38;0.98;;;22.20;89.30;;;;;;4959486;28;20047;-90
2023/09/29 10:41:31;;;;;;;4.38;1.45;;;22.30;89.30;;;;;;4959448;28;20070;-88
2023/09/29 10:44:04;;;;;;;3.08;1.30;;;22.40;88.90;;;;;;4971368;28;20047;-89
2023/09/29 10:46:31;;;;;;;4.13;1.30;;;22.40;88.50;;;;;;4943119;28;20049;-88
2023/09/29 10:48:59;;;;;;;3.17;1.27;;;22.30;88.30;;;;;;4958612;28;20497;-85
2023/09/29 10:51:39;;;;;;;4.30;1.40;;;22.20;88.90;;;;;;4943457;28;20038;-88
2023/09/29 10:54:23;;;;;;;3.05;1.00;;;22.10;89.30;;;;;;4925220;29;20043;-90
2023/09/29 10:56:50;;;;;;;4.28;1.35;;;21.90;89.90;;;;;;4909007;29;20141;-88
2023/09/29 10:59:18;;;;;;;3.30;1.35;;;21.90;90.20;;;;;;4938588;28;20413;-88
2023/09/29 11:01:46;;;;;;;2.90;0.90;;;21.90;90.20;;;;;;4941966;28;20049;-86
2023/09/29 11:04:17;;;;;;;3.40;1.00;;;21.90;90.20;;;;;;4965914;28;20047;-90
2023/09/29 11:06:46;;;;;;;2.17;1.02;;;21.90;90.60;;;;;;4959317;28;20049;-88
2023/09/29 11:09:19;;;;;;;2.90;1.13;;;21.80;90.40;;;;;;4959201;28;20050;-91
2023/09/29 11:11:48;;;;;;;2.60;1.10;;;21.70;90.60;;;;;;4965547;28;20046;-87
2023/09/29 11:14:16;;;;;;;5.43;1.55;;;21.60;90.80;;;;;;4965935;28;20057;-89
2023/09/29 11:16:55;;;;;;;2.88;1.10;;;21.40;91.10;;;;;;4981671;28;20497;-88
2023/09/29 11:19:25;;;;;;;4.63;1.70;;;21.40;91.10;;;;;;4965357;28;20053;-87
2023/09/29 11:21:52;;;;;;;3.88;1.48;;;21.40;91.20;;;;;;4931848;28;20043;-83
2023/09/29 11:24:19;;;;;;;3.92;1.77;;;21.30;91.20;;;;;;4944932;28;20046;-83
2023/09/29 11:26:50;;;;;;;2.90;1.40;;;21.30;91.20;;;;;;4960845;28;20420;-83
2023/09/29 11:29:22;;;;;;;2.00;0.90;;;21.30;91.20;;;;;;4944975;28;20043;-84
2023/09/29 11:31:53;;;;;;;2.47;1.08;;;21.40;91.30;;;;;;4961024;28;20039;-83
2023/09/29 11:34:21;;;;;;;3.35;1.05;;;21.40;91.20;;;;;;4931903;28;20142;-83
2023/09/29 11:36:49;;;;;;;1.50;0.80;;;21.60;91.10;;;;;;4928964;28;20054;-83
2023/09/29 11:39:22;;;;;;;3.22;1.00;;;21.80;90.90;;;;;;4944554;28;20050;-80
2023/09/29 11:42:16;;;;;;;1.60;0.80;;;21.80;90.80;;;;;;4941258;29;20150;-82
2023/09/29 11:44:53;;;;;;;4.20;1.45;;;21.80;91.00;;;;;;4945126;28;20050;-82
2023/09/29 11:47:20;;;;;;;3.70;1.40;;;21.60;91.20;;;;;;4939564;28;20044;-83
2023/09/29 11:49:51;;;;;;;4.30;1.58;;;21.40;91.40;;;;;;4943992;28;20049;-83
2023/09/29 11:52:27;;;;;;;3.50;1.10;;;21.20;91.70;;;;;;4961095;28;20038;-82
2023/09/29 11:54:55;;;;;;;5.43;2.22;;;21.10;92.00;;;;;;4944272;28;20054;-81
2023/09/29 11:57:22;;;;;;;3.25;1.75;;;21.00;92.30;;;;;;4944768;28;20410;-83
2023/09/29 11:59:49;;;;;;;3.35;1.80;;;20.90;92.40;;;;;;4928407;28;20086;-84
2023/09/29 12:02:22;;;;;;;3.42;1.55;;;21.00;92.40;;;;;;4925582;29;20055;-83
2023/09/29 12:04:49;;;;;;;4.50;2.03;;;21.10;92.30;;;;;;4955518;28;20035;-83
2023/09/29 12:07:17;;;;;;;3.40;2.00;;;21.20;92.30;;;;;;4925047;29;20052;-82
2023/09/29 12:09:44;;;;;;;4.53;1.92;;;21.00;92.50;;;;;;4960242;28;20465;-83
2023/09/29 12:12:12;;;;;;;4.28;2.03;;;20.60;93.00;;;;;;4928279;28;20071;-82
2023/09/29 12:14:39;;;;;;;3.10;1.77;;;20.40;93.50;;;;;;4952550;28;20493;-82
2023/09/29 12:17:06;;;;;;;4.47;2.50;;;20.20;94.00;;;;;;4959784;28;20078;-82
2023/09/29 12:19:34;;;;;;;4.80;2.20;;;20.10;94.40;;;;;;4943844;28;20047;-82
2023/09/29 12:22:01;;;;;;;5.82;2.45;;;20.10;94.60;;;;;;4945519;28;20054;-82
2023/09/29 12:24:28;;;;;;;3.40;1.95;;;20.10;94.70;;;;;;4929231;28;20090;-82
2023/09/29 12:26:55;;;;;;;3.97;2.20;;;20.10;94.80;;;;;;4955268;28;20047;-81
2023/09/29 12:29:23;;;;;;;5.93;2.25;;;20.10;94.90;;;;;;4943581;28;20130;-82
2023/09/29 12:31:51;;;;;;;4.43;2.83;;;20.10;95.10;;;;;;4925100;28;20050;-82
2023/09/29 12:34:18;;;;;;;2.95;1.95;;;20.00;95.30;;;;;;4959105;28;20053;-83
2023/09/29 12:36:45;;;;;;;4.85;2.88;;;20.00;95.40;;;;;;4936841;28;20055;-80
2023/09/29 12:39:12;;;;;;;3.47;2.05;;;19.90;96.20;;;;;;4970763;28;20053;-80
2023/09/29 12:41:40;;;;;;;3.63;1.58;;;19.90;95.90;;;;;;4960047;28;20042;-81
2023/09/29 12:44:07;;;;;;;4.63;1.67;;;19.90;95.90;;;;;;4959510;28;20050;-82
2023/09/29 12:46:35;;;;;;;2.80;1.20;;;20.00;96.00;;;;;;4924850;29;20043;-82
2023/09/29 12:49:03;;;;;;;3.30;0.90;;;20.00;96.10;;;;;;4967984;28;20086;-81
2023/09/29 12:51:31;;;;;;;1.70;0.80;;;20.00;96.30;;;;;;4959014;28;20046;-82
2023/09/29 12:53:59;;;;;;;2.35;0.73;;;20.00;96.00;;;;;;4959493;28;20043;-80
2023/09/29 12:56:27;;;;;;;3.55;1.25;;;20.00;95.90;;;;;;4963190;28;20274;-81
2023/09/29 12:58:57;;;;;;;6.13;1.38;;;19.90;96.00;;;;;;4927525;28;20047;-81
2023/09/29 13:01:28;;;;;;;2.55;1.20;;;19.80;96.00;;;;;;4939832;29;20133;-81
2023/09/29 13:03:55;;;;;;;2.88;0.88;;;19.60;96.00;;;;;;4964343;28;20369;-82
2023/09/29 13:06:23;;;;;;;2.97;0.82;;;19.50;96.10;;;;;;4927684;28;20512;-82
2023/09/29 13:08:51;;;;;;;1.45;0.63;;;19.50;96.10;;;;;;4942929;28;20043;-83
2023/09/29 13:11:18;;;;;;;1.95;0.95;;;19.40;96.10;;;;;;4958802;28;20039;-82
2023/09/29 13:13:46;;;;;;;4.00;0.60;;;19.40;96.00;;;;;;4958863;28;20057;-83
2023/09/29 13:16:13;;;;;;;1.63;0.50;;;19.40;96.00;;;;;;4942649;28;20508;-82
2023/09/29 13:18:41;;;;;;;1.25;0.50;;;19.40;95.90;;;;;;4942917;28;20043;-83
2023/09/29 13:21:08;;;;;;;2.22;0.32;;;19.40;95.80;;;;;;4958461;28;20501;-82